createdAt,value
2023-03-17T00:02:08.247Z,4.75
2023-03-17T00:04:36.632Z,5.53
2023-03-17T00:07:06.287Z,6.22
2023-03-17T00:09:34.470Z,5.60
2023-03-17T00:12:02.715Z,5.28
2023-03-17T00:14:32.330Z,5.72
2023-03-17T00:17:00.839Z,7.03
2023-03-17T00:19:32.159Z,6.70
2023-03-17T00:22:00.938Z,8.60
2023-03-17T00:24:29.874Z,7.25
2023-03-17T00:26:58.131Z,7.55
2023-03-17T00:29:26.881Z,7.03
2023-03-17T00:31:57.965Z,5.68
2023-03-17T00:34:27.260Z,5.82
2023-03-17T00:36:56.084Z,7.22
2023-03-17T00:39:25.357Z,6.70
2023-03-17T00:41:55.793Z,5.80
2023-03-17T00:44:24.173Z,6.20
2023-03-17T00:46:52.513Z,6.22
2023-03-17T00:49:24.679Z,6.63
2023-03-17T00:51:53.370Z,6.45
2023-03-17T00:54:24.104Z,6.35
2023-03-17T00:56:53.161Z,6.45
2023-03-17T00:59:25.957Z,6.00
2023-03-17T01:01:55.309Z,6.85
2023-03-17T01:04:25.474Z,6.65
2023-03-17T01:06:54.505Z,6.00
2023-03-17T01:09:26.831Z,6.75
2023-03-17T01:11:55.722Z,6.80
2023-03-17T01:14:24.970Z,5.85
2023-03-17T01:16:55.036Z,5.85
2023-03-17T01:19:25.331Z,5.60
2023-03-17T01:21:53.531Z,5.50
2023-03-17T01:24:21.707Z,6.43
2023-03-17T01:26:50.158Z,6.90
2023-03-17T01:29:18.349Z,6.55
2023-03-17T01:31:47.627Z,6.95
2023-03-17T01:34:16.407Z,6.55
2023-03-17T01:36:46.789Z,6.10
2023-03-17T01:39:16.096Z,6.88
2023-03-17T01:41:45.571Z,7.38
2023-03-17T01:44:18.334Z,5.57
2023-03-17T01:46:47.281Z,6.10
2023-03-17T01:49:26.761Z,6.55
2023-03-17T01:52:06.061Z,5.38
2023-03-17T01:54:40.826Z,6.07
2023-03-17T01:57:13.953Z,7.13
2023-03-17T01:59:46.652Z,5.72
2023-03-17T02:02:21.200Z,6.57
2023-03-17T02:04:50.446Z,5.35
2023-03-17T02:07:20.479Z,6.20
2023-03-17T02:09:49.010Z,6.50
2023-03-17T02:12:23.450Z,8.63
2023-03-17T02:14:52.811Z,6.93
2023-03-17T02:17:22.943Z,6.20
2023-03-17T02:19:52.166Z,6.90
2023-03-17T02:22:21.975Z,6.30
2023-03-17T02:24:55.881Z,5.18
2023-03-17T02:27:29.786Z,5.32
2023-03-17T02:29:59.791Z,4.53
2023-03-17T02:32:28.312Z,4.90
2023-03-17T02:34:57.184Z,5.28
2023-03-17T02:37:26.821Z,5.40
2023-03-17T02:39:55.046Z,5.93
2023-03-17T02:42:23.365Z,5.97
2023-03-17T02:44:51.580Z,5.00
2023-03-17T02:47:20.613Z,7.28
2023-03-17T02:49:50.094Z,6.90
2023-03-17T02:52:18.256Z,6.22
2023-03-17T02:54:47.793Z,6.38
2023-03-17T02:57:15.981Z,6.18
2023-03-17T02:59:44.263Z,6.25
2023-03-17T03:02:15.406Z,6.55
2023-03-17T03:04:44.140Z,5.53
2023-03-17T03:07:12.558Z,5.10
2023-03-17T03:09:41.964Z,4.30
2023-03-17T03:12:11.877Z,5.13
2023-03-17T03:14:40.851Z,3.65
2023-03-17T03:17:10.707Z,4.40
2023-03-17T03:19:39.306Z,4.55
2023-03-17T03:22:08.365Z,4.30
2023-03-17T03:24:36.924Z,3.10
2023-03-17T03:27:05.353Z,4.55
2023-03-17T03:29:35.017Z,6.28
2023-03-17T03:32:03.222Z,6.35
2023-03-17T03:34:31.894Z,7.80
2023-03-17T03:37:00.091Z,9.77
2023-03-17T03:39:28.341Z,9.25
2023-03-17T03:41:58.184Z,6.95
2023-03-17T03:44:26.460Z,8.77
2023-03-17T03:46:56.006Z,7.15
2023-03-17T03:49:24.422Z,6.68
2023-03-17T03:51:52.589Z,6.55
2023-03-17T03:54:20.791Z,6.63
2023-03-17T03:56:48.964Z,6.35
2023-03-17T03:59:17.268Z,7.82
2023-03-17T04:01:45.642Z,6.85
2023-03-17T04:04:15.438Z,6.15
2023-03-17T04:06:43.648Z,8.90
2023-03-17T04:09:12.644Z,8.07
2023-03-17T04:11:40.847Z,5.85
2023-03-17T04:14:09.228Z,6.47
2023-03-17T04:16:37.370Z,4.53
2023-03-17T04:19:05.630Z,4.57
2023-03-17T04:21:35.223Z,4.50
2023-03-17T04:24:05.117Z,5.72
2023-03-17T04:26:33.744Z,7.47
2023-03-17T04:29:01.998Z,6.38
2023-03-17T04:31:30.690Z,6.25
2023-03-17T04:33:58.925Z,10.85
2023-03-17T04:36:27.134Z,6.30
2023-03-17T04:38:56.703Z,6.55
2023-03-17T04:41:24.991Z,18.20
2023-03-17T04:43:53.426Z,7.30
2023-03-17T04:46:21.906Z,6.32
2023-03-17T04:48:50.056Z,6.70
2023-03-17T04:51:18.673Z,5.53
2023-03-17T04:53:46.855Z,6.57
2023-03-17T04:56:16.720Z,8.70
2023-03-17T04:58:45.499Z,8.75
2023-03-17T05:01:13.712Z,10.05
2023-03-17T05:03:41.965Z,7.65
2023-03-17T05:06:10.177Z,7.40
2023-03-17T05:08:38.382Z,7.00
2023-03-17T05:11:06.965Z,6.35
2023-03-17T05:13:36.526Z,6.03
2023-03-17T05:16:04.839Z,4.95
2023-03-17T05:18:33.135Z,5.80
2023-03-17T05:21:01.552Z,5.68
2023-03-17T05:23:30.178Z,4.57
2023-03-17T05:25:58.408Z,4.53
2023-03-17T05:28:26.832Z,5.72
2023-03-17T05:30:57.636Z,5.38
2023-03-17T05:33:26.319Z,4.55
2023-03-17T05:35:54.860Z,4.13
2023-03-17T05:38:23.081Z,4.55
2023-03-17T05:40:52.873Z,3.60
2023-03-17T05:43:21.459Z,4.80
2023-03-17T05:45:50.576Z,4.20
2023-03-17T05:48:20.308Z,4.07
2023-03-17T05:50:49.844Z,5.45
2023-03-17T05:53:18.693Z,15.00
2023-03-17T05:55:46.949Z,10.90
2023-03-17T05:58:17.005Z,12.75
2023-03-17T06:00:46.173Z,11.40
2023-03-17T06:03:14.477Z,13.23
2023-03-17T06:05:44.169Z,9.23
2023-03-17T06:08:12.996Z,8.55
2023-03-17T06:10:41.274Z,7.28
2023-03-17T06:13:09.689Z,5.60
2023-03-17T06:15:38.046Z,5.18
2023-03-17T06:18:07.350Z,7.45
2023-03-17T06:20:38.150Z,7.60
2023-03-17T06:23:07.986Z,7.95
2023-03-17T06:25:37.115Z,7.55
2023-03-17T06:28:06.184Z,6.75
2023-03-17T06:30:38.097Z,6.68
2023-03-17T06:33:08.205Z,7.35
2023-03-17T06:35:36.493Z,8.85
2023-03-17T06:38:05.036Z,9.50
2023-03-17T06:40:34.980Z,7.63
2023-03-17T06:43:03.422Z,8.00
2023-03-17T06:45:35.792Z,8.90
2023-03-17T06:48:04.085Z,8.60
2023-03-17T06:50:32.422Z,7.97
2023-03-17T06:53:00.981Z,7.57
2023-03-17T06:55:29.565Z,8.60
2023-03-17T06:58:00.437Z,7.82
2023-03-17T07:00:30.235Z,8.52
2023-03-17T07:02:58.772Z,8.52
2023-03-17T07:05:27.931Z,9.20
2023-03-17T07:07:56.527Z,7.97
2023-03-17T07:10:24.771Z,7.15
2023-03-17T07:12:53.166Z,8.80
2023-03-17T07:15:22.692Z,8.93
2023-03-17T07:17:55.798Z,8.60
2023-03-17T07:20:24.317Z,7.90
2023-03-17T07:22:52.861Z,7.13
2023-03-17T07:25:21.077Z,5.75
2023-03-17T07:27:49.485Z,5.93
2023-03-17T07:30:19.085Z,6.38
2023-03-17T07:32:49.215Z,6.55
2023-03-17T07:35:17.840Z,5.35
2023-03-17T07:37:47.320Z,6.55
2023-03-17T07:40:17.776Z,5.65
2023-03-17T07:42:46.280Z,5.30
2023-03-17T07:45:14.628Z,6.35
2023-03-17T07:47:42.828Z,4.70
2023-03-17T07:50:13.289Z,5.63
2023-03-17T07:52:42.138Z,5.53
2023-03-17T07:55:13.732Z,5.57
2023-03-17T07:57:42.370Z,5.13
2023-03-17T08:00:13.627Z,5.30
2023-03-17T08:02:42.180Z,5.50
2023-03-17T08:05:13.326Z,5.43
2023-03-17T08:07:41.622Z,5.88
2023-03-17T08:10:11.653Z,6.10
2023-03-17T08:12:40.625Z,6.10
2023-03-17T08:15:12.326Z,6.85
2023-03-17T08:17:41.244Z,6.43
2023-03-17T08:20:11.551Z,6.55
2023-03-17T08:22:41.478Z,6.40
2023-03-17T08:25:12.875Z,6.13
2023-03-17T08:27:41.952Z,6.65
2023-03-17T08:30:13.673Z,7.47
2023-03-17T08:32:42.182Z,6.65
2023-03-17T08:35:15.069Z,6.78
2023-03-17T08:37:45.294Z,6.72
2023-03-17T08:40:17.451Z,6.30
2023-03-17T08:42:46.407Z,5.88
2023-03-17T08:45:18.245Z,6.55
2023-03-17T08:47:47.604Z,6.45
2023-03-17T08:50:19.335Z,7.28
2023-03-17T08:52:49.679Z,5.35
2023-03-17T08:55:18.713Z,6.55
2023-03-17T08:57:47.350Z,6.28
2023-03-17T09:00:20.264Z,7.72
2023-03-17T09:02:49.376Z,6.68
2023-03-17T09:05:18.548Z,8.85
2023-03-17T09:07:50.473Z,6.75
2023-03-17T09:10:22.539Z,7.22
2023-03-17T09:12:51.632Z,7.15
2023-03-17T09:15:21.194Z,5.47
2023-03-17T09:17:49.396Z,6.90
2023-03-17T09:20:18.553Z,6.85
2023-03-17T09:22:49.062Z,6.10
2023-03-17T09:25:17.812Z,6.50
2023-03-17T09:27:46.306Z,6.13
2023-03-17T09:30:15.137Z,6.50
2023-03-17T09:32:44.858Z,6.20
2023-03-17T09:35:16.059Z,5.28
2023-03-17T09:37:44.269Z,4.63
2023-03-17T09:40:17.572Z,5.30
2023-03-17T09:42:58.147Z,5.45
2023-03-17T09:45:33.261Z,5.38
2023-03-17T09:48:23.679Z,5.57
2023-03-17T09:50:56.723Z,4.43
2023-03-17T09:53:34.009Z,4.50
2023-03-17T09:56:10.023Z,4.45
2023-03-17T09:58:40.442Z,5.03
2023-03-17T10:01:12.726Z,4.82
2023-03-17T10:03:41.105Z,4.38
2023-03-17T10:06:28.133Z,4.40
2023-03-17T10:09:02.385Z,3.67
2023-03-17T10:11:40.388Z,2.65
2023-03-17T10:14:21.439Z,2.95
2023-03-17T10:16:56.198Z,3.22
2023-03-17T10:19:29.302Z,3.13
2023-03-17T10:22:02.108Z,3.10
2023-03-17T10:24:33.862Z,3.50
2023-03-17T10:27:06.447Z,3.17
2023-03-17T10:29:36.079Z,3.20
2023-03-17T10:32:04.536Z,3.30
2023-03-17T10:34:37.991Z,3.50
2023-03-17T10:37:08.882Z,3.40
2023-03-17T10:39:46.131Z,2.72
2023-03-17T10:42:24.457Z,3.22
2023-03-17T10:44:56.248Z,4.03
2023-03-17T10:47:30.296Z,3.30
2023-03-17T10:50:00.293Z,3.88
2023-03-17T10:52:31.023Z,3.70
2023-03-17T10:55:03.659Z,3.55
2023-03-17T10:57:34.142Z,3.70
2023-03-17T11:00:05.378Z,3.63
2023-03-17T11:02:44.249Z,3.83
2023-03-17T11:05:23.034Z,4.05
2023-03-17T11:07:51.815Z,3.58
2023-03-17T11:10:23.806Z,3.70
2023-03-17T11:13:01.872Z,3.10
2023-03-17T11:15:34.790Z,2.97
2023-03-17T11:18:06.273Z,3.10
2023-03-17T11:20:47.738Z,3.05
2023-03-17T11:23:39.663Z,3.47
2023-03-17T11:26:17.575Z,3.67
2023-03-17T11:28:51.593Z,3.38
2023-03-17T11:31:31.014Z,3.00
2023-03-17T11:34:08.677Z,2.90
2023-03-17T11:36:50.408Z,2.78
2023-03-17T11:39:26.068Z,2.85
2023-03-17T11:42:07.295Z,3.25
2023-03-17T11:45:15.589Z,3.58
2023-03-17T11:48:00.014Z,3.08
2023-03-17T11:50:32.012Z,2.58
2023-03-17T11:53:15.114Z,2.40
2023-03-17T11:55:46.962Z,2.55
2023-03-17T11:58:30.353Z,3.05
2023-03-17T12:01:02.191Z,2.80
2023-03-17T12:03:41.901Z,3.05
2023-03-17T12:06:16.443Z,2.40
2023-03-17T12:08:50.003Z,2.80
2023-03-17T12:11:24.125Z,2.55
2023-03-17T12:13:59.484Z,3.28
2023-03-17T12:16:33.206Z,3.35
2023-03-17T12:19:10.223Z,3.63
2023-03-17T12:21:46.551Z,3.28
2023-03-17T12:24:20.073Z,2.50
2023-03-17T12:26:55.850Z,2.78
2023-03-17T12:29:33.884Z,3.10
2023-03-17T12:32:08.319Z,2.47
2023-03-17T12:34:44.657Z,2.80
2023-03-17T12:37:14.240Z,3.20
2023-03-17T12:39:50.200Z,2.33
2023-03-17T12:42:30.741Z,3.15
2023-03-17T12:45:32.466Z,2.20
2023-03-17T12:48:37.065Z,3.15
2023-03-17T12:51:41.044Z,2.72
2023-03-17T12:54:16.362Z,2.80
2023-03-17T12:56:47.577Z,2.83
2023-03-17T12:59:19.338Z,2.97
2023-03-17T13:01:57.319Z,3.70
2023-03-17T13:04:29.806Z,2.90
2023-03-17T13:07:09.404Z,3.15
2023-03-17T13:09:47.935Z,3.13
2023-03-17T13:12:52.478Z,2.88
2023-03-17T13:15:55.281Z,3.17
2023-03-17T13:18:43.301Z,2.30
2023-03-17T13:21:16.142Z,2.80
2023-03-17T13:23:46.536Z,2.40
2023-03-17T13:26:18.999Z,2.38
2023-03-17T13:28:49.209Z,2.15
2023-03-17T13:31:38.223Z,2.50
2023-03-17T13:34:24.129Z,2.80
2023-03-17T13:37:02.575Z,2.60
2023-03-17T13:40:14.087Z,2.40
2023-03-17T13:43:09.423Z,2.83
2023-03-17T13:45:39.939Z,2.88
2023-03-17T13:48:32.093Z,2.42
2023-03-17T13:51:04.266Z,2.75
2023-03-17T13:53:38.852Z,2.97
2023-03-17T13:56:17.412Z,2.83
2023-03-17T13:59:14.360Z,2.65
2023-03-17T14:01:46.956Z,2.97
2023-03-17T14:04:21.590Z,2.70
2023-03-17T14:06:53.090Z,2.80
2023-03-17T14:09:33.943Z,2.95
2023-03-17T14:12:07.090Z,3.67
2023-03-17T14:14:45.261Z,2.90
2023-03-17T14:17:16.395Z,3.22
2023-03-17T14:20:06.316Z,3.20
2023-03-17T14:22:40.692Z,2.95
2023-03-17T14:25:17.663Z,2.70
2023-03-17T14:27:47.208Z,2.30
2023-03-17T14:30:22.294Z,2.97
2023-03-17T14:32:56.431Z,2.90
2023-03-17T14:35:25.493Z,2.63
2023-03-17T14:37:53.693Z,2.80
2023-03-17T14:40:26.096Z,2.70
2023-03-17T14:42:54.394Z,2.90
2023-03-17T14:45:29.635Z,2.65
2023-03-17T14:47:58.039Z,2.72
2023-03-17T14:50:29.933Z,2.17
2023-03-17T14:52:59.654Z,2.42
2023-03-17T14:55:38.111Z,2.25
2023-03-17T14:58:11.073Z,3.05
2023-03-17T15:00:45.916Z,2.70
2023-03-17T15:03:20.277Z,2.63
2023-03-17T15:05:49.232Z,3.10
2023-03-17T15:08:46.924Z,2.67
2023-03-17T15:11:23.430Z,2.65
2023-03-17T15:13:56.914Z,2.70
2023-03-17T15:16:29.385Z,2.42
2023-03-17T15:19:09.645Z,2.88
2023-03-17T15:21:41.736Z,3.03
2023-03-17T15:24:39.164Z,2.90
2023-03-17T15:27:15.804Z,2.70
2023-03-17T15:29:44.474Z,2.67
2023-03-17T15:32:15.208Z,2.80
2023-03-17T15:34:43.550Z,2.80
2023-03-17T15:37:22.767Z,2.67
2023-03-17T15:39:55.682Z,2.63
2023-03-17T15:42:28.222Z,2.55
2023-03-17T15:44:56.390Z,2.25
2023-03-17T15:47:28.477Z,2.22
2023-03-17T15:50:01.181Z,3.00
2023-03-17T15:52:30.286Z,4.88
2023-03-17T15:55:00.574Z,10.82
2023-03-17T15:57:33.128Z,9.23
2023-03-17T16:00:01.312Z,5.32
2023-03-17T16:02:32.025Z,4.10
2023-03-17T16:05:03.097Z,4.60
2023-03-17T16:07:32.549Z,5.55
2023-03-17T16:10:02.632Z,9.73
2023-03-17T16:12:32.174Z,7.05
2023-03-17T16:15:01.941Z,6.55
2023-03-17T16:17:32.324Z,6.32
2023-03-17T16:20:01.049Z,5.95
2023-03-17T16:22:39.308Z,3.80
2023-03-17T16:25:19.975Z,3.78
2023-03-17T16:27:51.427Z,3.38
2023-03-17T16:30:21.398Z,2.65
2023-03-17T16:32:50.590Z,3.15
2023-03-17T16:35:20.519Z,4.72
2023-03-17T16:37:52.289Z,9.52
2023-03-17T16:40:23.634Z,7.60
2023-03-17T16:42:54.342Z,4.15
2023-03-17T16:45:28.540Z,5.30
2023-03-17T16:47:57.703Z,6.35
2023-03-17T16:50:27.913Z,5.80
2023-03-17T16:52:56.225Z,4.85
2023-03-17T16:55:27.036Z,4.35
2023-03-17T16:57:58.813Z,3.75
2023-03-17T17:00:29.936Z,3.60
2023-03-17T17:02:58.980Z,3.95
2023-03-17T17:05:29.584Z,4.03
2023-03-17T17:07:58.588Z,4.30
2023-03-17T17:10:28.639Z,3.80
2023-03-17T17:12:58.257Z,3.33
2023-03-17T17:15:26.746Z,3.33
2023-03-17T17:17:57.743Z,3.20
2023-03-17T17:20:30.760Z,3.08
2023-03-17T17:22:59.997Z,3.28
2023-03-17T17:25:29.385Z,4.72
2023-03-17T17:27:59.930Z,4.00
2023-03-17T17:30:32.792Z,3.95
2023-03-17T17:33:02.542Z,3.47
2023-03-17T17:35:33.344Z,4.13
2023-03-17T17:38:02.509Z,4.05
2023-03-17T17:40:33.838Z,3.67
2023-03-17T17:43:03.795Z,3.95
2023-03-17T17:45:32.645Z,4.20
2023-03-17T17:48:00.814Z,4.25
2023-03-17T17:50:31.269Z,4.88
2023-03-17T17:53:05.147Z,4.35
2023-03-17T17:55:36.818Z,3.78
2023-03-17T17:58:06.883Z,4.28
2023-03-17T18:00:38.379Z,4.03
2023-03-17T18:03:06.613Z,4.05
2023-03-17T18:05:35.052Z,3.95
2023-03-17T18:08:03.588Z,4.22
2023-03-17T18:10:32.506Z,4.50
2023-03-17T18:13:00.896Z,4.90
2023-03-17T18:15:33.079Z,4.60
2023-03-17T18:18:01.383Z,4.72
2023-03-17T18:20:30.393Z,5.30
2023-03-17T18:22:58.960Z,5.97
2023-03-17T18:25:27.534Z,4.00
2023-03-17T18:28:00.869Z,5.18
2023-03-17T18:30:35.535Z,4.45
2023-03-17T18:33:07.558Z,5.10
2023-03-17T18:35:36.623Z,5.22
2023-03-17T18:38:05.194Z,4.88
2023-03-17T18:40:34.030Z,4.75
2023-03-17T18:43:02.896Z,5.20
2023-03-17T18:45:32.609Z,5.63
2023-03-17T18:48:00.937Z,5.80
2023-03-17T18:50:29.126Z,8.30
2023-03-17T18:52:57.310Z,7.40
2023-03-17T18:55:25.820Z,8.50
2023-03-17T18:57:54.861Z,11.57
2023-03-17T19:00:25.248Z,9.30
2023-03-17T19:02:57.617Z,7.15
2023-03-17T19:05:26.304Z,9.70
2023-03-17T19:07:57.087Z,11.55
2023-03-17T19:10:25.921Z,12.30
2023-03-17T19:12:54.800Z,12.02
2023-03-17T19:15:23.017Z,7.10
2023-03-17T19:17:52.254Z,14.52
2023-03-17T19:20:22.053Z,11.45
2023-03-17T19:22:53.192Z,11.13
2023-03-17T19:25:23.742Z,13.45
2023-03-17T19:27:51.918Z,10.48
2023-03-17T19:30:20.245Z,9.40
2023-03-17T19:32:48.440Z,8.07
2023-03-17T19:35:16.724Z,7.43
2023-03-17T19:37:46.259Z,6.90
2023-03-17T19:40:14.966Z,6.82
2023-03-17T19:42:43.274Z,6.72
2023-03-17T19:45:11.899Z,5.82
2023-03-17T19:47:40.695Z,6.45
2023-03-17T19:50:11.049Z,5.97
2023-03-17T19:52:39.249Z,4.88
2023-03-17T19:55:10.629Z,6.57
2023-03-17T19:57:39.082Z,5.35
2023-03-17T20:00:11.763Z,5.32
2023-03-17T20:02:40.325Z,5.30
2023-03-17T20:05:10.803Z,5.82
2023-03-17T20:07:39.118Z,5.25
2023-03-17T20:10:10.992Z,5.28
2023-03-17T20:12:39.397Z,5.63
2023-03-17T20:15:12.342Z,5.95
2023-03-17T20:17:41.077Z,6.00
2023-03-17T20:20:10.780Z,5.82
2023-03-17T20:22:40.265Z,5.20
2023-03-17T20:25:11.101Z,5.22
2023-03-17T20:27:40.188Z,4.68
2023-03-17T20:30:12.080Z,5.25
2023-03-17T20:32:40.566Z,4.63
2023-03-17T20:35:11.941Z,4.78
2023-03-17T20:37:40.159Z,4.70
2023-03-17T20:40:11.164Z,4.65
2023-03-17T20:42:39.322Z,4.82
2023-03-17T20:45:08.752Z,4.75
2023-03-17T20:47:37.498Z,4.55
2023-03-17T20:50:08.511Z,5.60
2023-03-17T20:52:41.895Z,5.05
2023-03-17T20:55:14.080Z,6.10
2023-03-17T20:57:43.089Z,5.60
2023-03-17T21:00:16.271Z,5.80
2023-03-17T21:02:45.066Z,5.70
2023-03-17T21:05:17.949Z,5.40
2023-03-17T21:07:46.624Z,5.53
2023-03-17T21:10:16.748Z,5.72
2023-03-17T21:12:45.271Z,5.15
2023-03-17T21:15:15.994Z,5.28
2023-03-17T21:17:44.256Z,6.25
2023-03-17T21:20:16.580Z,5.13
2023-03-17T21:22:46.035Z,7.15
2023-03-17T21:25:15.817Z,7.45
2023-03-17T21:27:44.011Z,6.57
2023-03-17T21:30:14.408Z,5.68
2023-03-17T21:32:43.393Z,4.45
2023-03-17T21:35:11.815Z,5.65
2023-03-17T21:37:40.048Z,5.63
2023-03-17T21:40:09.551Z,6.25
2023-03-17T21:42:39.455Z,6.85
2023-03-17T21:45:08.300Z,6.95
2023-03-17T21:47:40.851Z,7.32
2023-03-17T21:50:10.158Z,9.23
2023-03-17T21:52:38.737Z,7.40
2023-03-17T21:55:09.342Z,9.35
2023-03-17T21:57:39.336Z,6.78
2023-03-17T22:00:10.880Z,6.53
2023-03-17T22:02:42.748Z,7.53
2023-03-17T22:05:11.541Z,6.88
2023-03-17T22:07:41.164Z,6.90
2023-03-17T22:10:11.367Z,7.68
2023-03-17T22:12:40.959Z,10.20
2023-03-17T22:15:10.482Z,8.55
2023-03-17T22:17:39.651Z,7.68
2023-03-17T22:20:09.012Z,7.57
2023-03-17T22:22:37.246Z,7.07
2023-03-17T22:25:06.267Z,7.53
2023-03-17T22:27:34.640Z,6.32
2023-03-17T22:30:04.573Z,6.30
2023-03-17T22:32:34.957Z,6.03
2023-03-17T22:35:04.352Z,5.45
2023-03-17T22:37:32.753Z,6.03
2023-03-17T22:40:03.958Z,6.13
2023-03-17T22:42:32.475Z,5.35
2023-03-17T22:45:05.383Z,5.10
2023-03-17T22:47:34.607Z,4.80
2023-03-17T22:50:02.794Z,4.80
2023-03-17T22:52:36.613Z,4.80
2023-03-17T22:55:05.600Z,5.18
2023-03-17T22:57:33.967Z,5.93
2023-03-17T23:00:02.175Z,4.82
2023-03-17T23:02:31.775Z,4.45
2023-03-17T23:04:59.981Z,3.95
2023-03-17T23:07:29.207Z,4.55
2023-03-17T23:09:58.600Z,4.75
2023-03-17T23:12:28.193Z,5.20
2023-03-17T23:14:57.196Z,5.22
2023-03-17T23:17:26.533Z,5.25
2023-03-17T23:19:56.377Z,5.15
2023-03-17T23:22:24.876Z,4.90
2023-03-17T23:24:53.608Z,4.57
2023-03-17T23:27:21.757Z,5.50
2023-03-17T23:29:50.064Z,4.72
2023-03-17T23:32:18.239Z,4.97
2023-03-17T23:34:46.874Z,4.35
2023-03-17T23:37:19.508Z,4.57
2023-03-17T23:39:51.198Z,4.25
2023-03-17T23:42:19.425Z,4.70
2023-03-17T23:44:47.921Z,4.28
2023-03-17T23:47:16.845Z,4.65
2023-03-17T23:49:45.213Z,4.22
2023-03-17T23:52:13.952Z,4.35
2023-03-17T23:54:44.016Z,4.38
2023-03-17T23:57:12.633Z,4.25
2023-03-17T23:59:41.386Z,3.92
